sensor_id;sensor_type;location;lat;lon;timestamp;temperature;humidity
74822;DHT22;63353;48.702;8.884;2022-10-20T00:00:08;8.80;99.90
74822;DHT22;63353;48.702;8.884;2022-10-20T00:02:34;8.70;99.90
74822;DHT22;63353;48.702;8.884;2022-10-20T00:04:59;8.70;99.90
74822;DHT22;63353;48.702;8.884;2022-10-20T00:07:25;8.60;99.90
74822;DHT22;63353;48.702;8.884;2022-10-20T00:09:50;8.60;99.90
74822;DHT22;63353;48.702;8.884;2022-10-20T00:12:16;8.60;99.90
74822;DHT22;63353;48.702;8.884;2022-10-20T00:14:41;8.60;99.90
74822;DHT22;63353;48.702;8.884;2022-10-20T00:17:07;8.60;99.90
74822;DHT22;63353;48.702;8.884;2022-10-20T00:19:33;8.70;99.90
74822;DHT22;63353;48.702;8.884;2022-10-20T00:21:59;8.80;99.90
74822;DHT22;63353;48.702;8.884;2022-10-20T00:24:25;8.90;99.90
74822;DHT22;63353;48.702;8.884;2022-10-20T00:26:50;9.20;99.90
74822;DHT22;63353;48.702;8.884;2022-10-20T00:29:16;9.10;99.90
74822;DHT22;63353;48.702;8.884;2022-10-20T00:31:42;9.00;99.90
74822;DHT22;63353;48.702;8.884;2022-10-20T00:34:08;9.00;99.90
74822;DHT22;63353;48.702;8.884;2022-10-20T00:36:34;8.90;99.90
74822;DHT22;63353;48.702;8.884;2022-10-20T00:39:01;8.80;99.90
74822;DHT22;63353;48.702;8.884;2022-10-20T00:41:27;8.90;99.90
74822;DHT22;63353;48.702;8.884;2022-10-20T00:44:01;8.80;99.90
74822;DHT22;63353;48.702;8.884;2022-10-20T00:46:38;8.80;99.90
74822;DHT22;63353;48.702;8.884;2022-10-20T00:49:21;8.90;99.90
74822;DHT22;63353;48.702;8.884;2022-10-20T00:51:48;9.00;99.90
74822;DHT22;63353;48.702;8.884;2022-10-20T00:54:20;9.20;99.90
74822;DHT22;63353;48.702;8.884;2022-10-20T00:56:48;9.20;99.90
74822;DHT22;63353;48.702;8.884;2022-10-20T00:59:17;9.00;99.90
74822;DHT22;63353;48.702;8.884;2022-10-20T01:01:44;8.90;99.90
74822;DHT22;63353;48.702;8.884;2022-10-20T01:04:10;8.80;99.90
74822;DHT22;63353;48.702;8.884;2022-10-20T01:06:36;8.70;99.90
74822;DHT22;63353;48.702;8.884;2022-10-20T01:09:03;8.70;99.90
74822;DHT22;63353;48.702;8.884;2022-10-20T01:11:47;8.70;99.90
74822;DHT22;63353;48.702;8.884;2022-10-20T01:14:46;8.70;99.90
74822;DHT22;63353;48.702;8.884;2022-10-20T01:20:26;8.80;99.90
74822;DHT22;63353;48.702;8.884;2022-10-20T01:31:27;8.80;99.90
74822;DHT22;63353;48.702;8.884;2022-10-20T01:36:35;8.70;99.90
74822;DHT22;63353;48.702;8.884;2022-10-20T01:39:34;8.70;99.90
74822;DHT22;63353;48.702;8.884;2022-10-20T01:42:15;8.60;99.90
74822;DHT22;63353;48.702;8.884;2022-10-20T01:44:43;8.50;99.90
74822;DHT22;63353;48.702;8.884;2022-10-20T01:47:10;8.50;99.90
74822;DHT22;63353;48.702;8.884;2022-10-20T01:49:37;8.50;99.90
74822;DHT22;63353;48.702;8.884;2022-10-20T01:52:05;8.50;99.90
74822;DHT22;63353;48.702;8.884;2022-10-20T01:54:31;8.60;99.90
74822;DHT22;63353;48.702;8.884;2022-10-20T01:57:24;8.70;99.90
74822;DHT22;63353;48.702;8.884;2022-10-20T02:08:14;8.90;99.90
74822;DHT22;63353;48.702;8.884;2022-10-20T02:10:48;9.00;99.90
74822;DHT22;63353;48.702;8.884;2022-10-20T02:13:15;9.00;99.90
74822;DHT22;63353;48.702;8.884;2022-10-20T02:15:49;9.10;99.90
74822;DHT22;63353;48.702;8.884;2022-10-20T02:18:21;9.10;99.90
74822;DHT22;63353;48.702;8.884;2022-10-20T02:20:50;9.20;99.90
74822;DHT22;63353;48.702;8.884;2022-10-20T02:23:17;9.10;99.90
74822;DHT22;63353;48.702;8.884;2022-10-20T02:25:43;9.20;99.90
74822;DHT22;63353;48.702;8.884;2022-10-20T02:28:12;9.40;99.90
74822;DHT22;63353;48.702;8.884;2022-10-20T02:30:39;9.40;99.90
74822;DHT22;63353;48.702;8.884;2022-10-20T02:33:06;9.50;99.90
74822;DHT22;63353;48.702;8.884;2022-10-20T02:35:32;9.60;99.90
74822;DHT22;63353;48.702;8.884;2022-10-20T02:37:59;9.60;99.90
74822;DHT22;63353;48.702;8.884;2022-10-20T02:40:25;9.70;99.90
74822;DHT22;63353;48.702;8.884;2022-10-20T02:42:51;9.60;99.90
74822;DHT22;63353;48.702;8.884;2022-10-20T02:45:17;9.60;99.90
74822;DHT22;63353;48.702;8.884;2022-10-20T02:47:43;9.60;99.90
74822;DHT22;63353;48.702;8.884;2022-10-20T02:50:09;9.60;99.90
74822;DHT22;63353;48.702;8.884;2022-10-20T02:52:35;9.60;99.90
74822;DHT22;63353;48.702;8.884;2022-10-20T02:55:01;9.60;99.90
74822;DHT22;63353;48.702;8.884;2022-10-20T02:57:27;9.50;99.90
74822;DHT22;63353;48.702;8.884;2022-10-20T02:59:52;9.50;99.90
74822;DHT22;63353;48.702;8.884;2022-10-20T03:02:18;9.40;99.90
74822;DHT22;63353;48.702;8.884;2022-10-20T03:04:44;9.50;99.90
74822;DHT22;63353;48.702;8.884;2022-10-20T03:07:10;9.50;99.90
74822;DHT22;63353;48.702;8.884;2022-10-20T03:09:36;9.40;99.90
74822;DHT22;63353;48.702;8.884;2022-10-20T03:12:02;9.40;99.90
74822;DHT22;63353;48.702;8.884;2022-10-20T03:14:28;9.50;99.90
74822;DHT22;63353;48.702;8.884;2022-10-20T03:16:53;9.50;99.90
74822;DHT22;63353;48.702;8.884;2022-10-20T03:19:19;9.60;99.90
74822;DHT22;63353;48.702;8.884;2022-10-20T03:21:44;9.60;99.90
74822;DHT22;63353;48.702;8.884;2022-10-20T03:24:11;9.60;99.90
74822;DHT22;63353;48.702;8.884;2022-10-20T03:26:37;9.60;99.90
74822;DHT22;63353;48.702;8.884;2022-10-20T03:29:03;9.60;99.90
74822;DHT22;63353;48.702;8.884;2022-10-20T03:31:29;9.60;99.90
74822;DHT22;63353;48.702;8.884;2022-10-20T03:33:54;9.50;99.90
74822;DHT22;63353;48.702;8.884;2022-10-20T03:36:20;9.50;99.90
74822;DHT22;63353;48.702;8.884;2022-10-20T03:38:46;9.50;99.90
74822;DHT22;63353;48.702;8.884;2022-10-20T03:41:11;9.50;99.90
74822;DHT22;63353;48.702;8.884;2022-10-20T03:43:38;9.50;99.90
74822;DHT22;63353;48.702;8.884;2022-10-20T03:46:09;9.50;99.90
74822;DHT22;63353;48.702;8.884;2022-10-20T03:48:36;9.50;99.90
74822;DHT22;63353;48.702;8.884;2022-10-20T03:51:02;9.50;99.90
74822;DHT22;63353;48.702;8.884;2022-10-20T03:53:28;9.50;99.90
74822;DHT22;63353;48.702;8.884;2022-10-20T03:58:20;9.60;99.90
74822;DHT22;63353;48.702;8.884;2022-10-20T04:00:47;9.60;99.90
74822;DHT22;63353;48.702;8.884;2022-10-20T04:03:13;9.70;99.90
74822;DHT22;63353;48.702;8.884;2022-10-20T04:05:38;9.70;99.90
74822;DHT22;63353;48.702;8.884;2022-10-20T04:08:04;9.70;99.90
74822;DHT22;63353;48.702;8.884;2022-10-20T04:10:30;9.70;99.90
74822;DHT22;63353;48.702;8.884;2022-10-20T04:12:59;9.70;99.90
74822;DHT22;63353;48.702;8.884;2022-10-20T04:15:26;9.60;99.90
74822;DHT22;63353;48.702;8.884;2022-10-20T04:17:52;9.60;99.90
74822;DHT22;63353;48.702;8.884;2022-10-20T04:20:18;9.60;99.90
74822;DHT22;63353;48.702;8.884;2022-10-20T04:22:44;9.50;99.90
74822;DHT22;63353;48.702;8.884;2022-10-20T04:25:10;9.50;99.90
74822;DHT22;63353;48.702;8.884;2022-10-20T04:27:39;9.50;99.90
74822;DHT22;63353;48.702;8.884;2022-10-20T04:30:05;9.50;99.90
74822;DHT22;63353;48.702;8.884;2022-10-20T04:32:31;9.60;99.90
74822;DHT22;63353;48.702;8.884;2022-10-20T04:34:57;9.60;99.90
74822;DHT22;63353;48.702;8.884;2022-10-20T04:37:23;9.50;99.90
74822;DHT22;63353;48.702;8.884;2022-10-20T04:39:48;9.50;99.90
74822;DHT22;63353;48.702;8.884;2022-10-20T04:42:16;9.60;99.90
74822;DHT22;63353;48.702;8.884;2022-10-20T04:44:42;9.50;99.90
74822;DHT22;63353;48.702;8.884;2022-10-20T04:47:07;9.50;99.90
74822;DHT22;63353;48.702;8.884;2022-10-20T04:49:33;9.40;99.90
74822;DHT22;63353;48.702;8.884;2022-10-20T04:51:59;9.40;99.90
74822;DHT22;63353;48.702;8.884;2022-10-20T04:54:25;9.40;99.90
74822;DHT22;63353;48.702;8.884;2022-10-20T04:56:50;9.30;99.90
74822;DHT22;63353;48.702;8.884;2022-10-20T04:59:19;9.30;99.90
74822;DHT22;63353;48.702;8.884;2022-10-20T05:01:45;9.40;99.90
74822;DHT22;63353;48.702;8.884;2022-10-20T05:04:11;9.40;99.90
74822;DHT22;63353;48.702;8.884;2022-10-20T05:06:37;9.40;99.90
74822;DHT22;63353;48.702;8.884;2022-10-20T05:09:05;9.40;99.90
74822;DHT22;63353;48.702;8.884;2022-10-20T05:11:34;9.40;99.90
74822;DHT22;63353;48.702;8.884;2022-10-20T05:14:00;9.50;99.90
74822;DHT22;63353;48.702;8.884;2022-10-20T05:16:26;9.50;99.90
74822;DHT22;63353;48.702;8.884;2022-10-20T05:18:52;9.50;99.90
74822;DHT22;63353;48.702;8.884;2022-10-20T05:21:23;9.50;99.90
74822;DHT22;63353;48.702;8.884;2022-10-20T05:24:00;9.40;99.90
74822;DHT22;63353;48.702;8.884;2022-10-20T05:26:27;9.50;99.90
74822;DHT22;63353;48.702;8.884;2022-10-20T05:28:54;9.50;99.90
74822;DHT22;63353;48.702;8.884;2022-10-20T05:31:21;9.50;99.90
74822;DHT22;63353;48.702;8.884;2022-10-20T05:33:50;9.50;99.90
74822;DHT22;63353;48.702;8.884;2022-10-20T05:36:19;9.50;99.90
74822;DHT22;63353;48.702;8.884;2022-10-20T05:38:45;9.40;99.90
74822;DHT22;63353;48.702;8.884;2022-10-20T05:41:13;9.40;99.90
74822;DHT22;63353;48.702;8.884;2022-10-20T05:43:39;9.30;99.90
74822;DHT22;63353;48.702;8.884;2022-10-20T05:46:06;9.30;99.90
74822;DHT22;63353;48.702;8.884;2022-10-20T05:48:33;9.20;99.90
74822;DHT22;63353;48.702;8.884;2022-10-20T05:51:15;9.10;99.90
74822;DHT22;63353;48.702;8.884;2022-10-20T05:53:42;9.20;99.90
74822;DHT22;63353;48.702;8.884;2022-10-20T05:56:10;9.20;99.90
74822;DHT22;63353;48.702;8.884;2022-10-20T05:58:37;9.20;99.90
74822;DHT22;63353;48.702;8.884;2022-10-20T06:01:13;9.30;99.90
74822;DHT22;63353;48.702;8.884;2022-10-20T06:03:50;9.20;99.90
74822;DHT22;63353;48.702;8.884;2022-10-20T06:06:16;9.20;99.90
74822;DHT22;63353;48.702;8.884;2022-10-20T06:08:42;9.30;99.90
74822;DHT22;63353;48.702;8.884;2022-10-20T06:11:09;9.40;99.90
74822;DHT22;63353;48.702;8.884;2022-10-20T06:13:35;9.40;99.90
74822;DHT22;63353;48.702;8.884;2022-10-20T06:16:06;9.40;99.90
74822;DHT22;63353;48.702;8.884;2022-10-20T06:18:32;9.40;99.90
74822;DHT22;63353;48.702;8.884;2022-10-20T06:21:08;9.50;99.90
74822;DHT22;63353;48.702;8.884;2022-10-20T06:23:34;9.60;99.90
74822;DHT22;63353;48.702;8.884;2022-10-20T06:26:06;9.60;99.90
74822;DHT22;63353;48.702;8.884;2022-10-20T06:28:33;9.60;99.90
74822;DHT22;63353;48.702;8.884;2022-10-20T06:30:59;9.70;99.90
74822;DHT22;63353;48.702;8.884;2022-10-20T06:33:28;9.70;99.90
74822;DHT22;63353;48.702;8.884;2022-10-20T06:35:58;9.80;99.90
74822;DHT22;63353;48.702;8.884;2022-10-20T06:38:25;9.80;99.90
74822;DHT22;63353;48.702;8.884;2022-10-20T06:40:51;9.90;99.90
74822;DHT22;63353;48.702;8.884;2022-10-20T06:43:17;9.90;99.90
74822;DHT22;63353;48.702;8.884;2022-10-20T06:45:42;9.90;99.90
74822;DHT22;63353;48.702;8.884;2022-10-20T06:48:08;10.00;99.90
74822;DHT22;63353;48.702;8.884;2022-10-20T06:50:34;10.00;99.90
74822;DHT22;63353;48.702;8.884;2022-10-20T06:52:59;10.00;99.90
74822;DHT22;63353;48.702;8.884;2022-10-20T06:55:25;10.10;99.90
74822;DHT22;63353;48.702;8.884;2022-10-20T06:57:51;10.20;99.90
74822;DHT22;63353;48.702;8.884;2022-10-20T07:00:17;10.30;99.90
74822;DHT22;63353;48.702;8.884;2022-10-20T07:02:42;10.40;99.90
74822;DHT22;63353;48.702;8.884;2022-10-20T07:05:08;10.50;99.90
74822;DHT22;63353;48.702;8.884;2022-10-20T07:07:34;10.60;99.90
74822;DHT22;63353;48.702;8.884;2022-10-20T07:09:59;10.80;99.90
74822;DHT22;63353;48.702;8.884;2022-10-20T07:12:25;10.80;99.90
74822;DHT22;63353;48.702;8.884;2022-10-20T07:14:50;10.90;99.90
74822;DHT22;63353;48.702;8.884;2022-10-20T07:17:16;11.10;99.90
74822;DHT22;63353;48.702;8.884;2022-10-20T07:19:41;11.20;99.90
74822;DHT22;63353;48.702;8.884;2022-10-20T07:22:07;11.20;99.90
74822;DHT22;63353;48.702;8.884;2022-10-20T07:24:33;11.40;99.90
74822;DHT22;63353;48.702;8.884;2022-10-20T07:26:58;11.50;99.90
74822;DHT22;63353;48.702;8.884;2022-10-20T07:29:24;11.60;99.90
74822;DHT22;63353;48.702;8.884;2022-10-20T07:31:49;11.60;99.90
74822;DHT22;63353;48.702;8.884;2022-10-20T07:34:17;11.70;99.90
74822;DHT22;63353;48.702;8.884;2022-10-20T07:36:44;11.70;99.90
74822;DHT22;63353;48.702;8.884;2022-10-20T07:39:13;11.80;99.90
74822;DHT22;63353;48.702;8.884;2022-10-20T07:41:39;12.00;99.90
74822;DHT22;63353;48.702;8.884;2022-10-20T07:44:08;12.00;99.90
74822;DHT22;63353;48.702;8.884;2022-10-20T07:46:34;12.10;99.90
74822;DHT22;63353;48.702;8.884;2022-10-20T07:49:00;12.20;99.90
74822;DHT22;63353;48.702;8.884;2022-10-20T07:51:28;12.30;99.90
74822;DHT22;63353;48.702;8.884;2022-10-20T07:54:14;12.30;99.90
74822;DHT22;63353;48.702;8.884;2022-10-20T07:56:41;12.30;99.90
74822;DHT22;63353;48.702;8.884;2022-10-20T07:59:08;12.30;99.90
74822;DHT22;63353;48.702;8.884;2022-10-20T08:01:34;12.40;99.90
74822;DHT22;63353;48.702;8.884;2022-10-20T08:04:01;12.30;99.90
74822;DHT22;63353;48.702;8.884;2022-10-20T08:06:26;12.40;99.90
74822;DHT22;63353;48.702;8.884;2022-10-20T08:08:53;12.40;99.90
74822;DHT22;63353;48.702;8.884;2022-10-20T08:11:19;12.60;99.90
74822;DHT22;63353;48.702;8.884;2022-10-20T08:13:45;12.80;99.90
74822;DHT22;63353;48.702;8.884;2022-10-20T08:16:12;13.10;99.90
74822;DHT22;63353;48.702;8.884;2022-10-20T08:18:38;13.20;99.90
74822;DHT22;63353;48.702;8.884;2022-10-20T08:21:08;13.40;99.90
74822;DHT22;63353;48.702;8.884;2022-10-20T08:23:37;13.40;99.90
74822;DHT22;63353;48.702;8.884;2022-10-20T08:26:03;13.60;99.90
74822;DHT22;63353;48.702;8.884;2022-10-20T08:28:28;13.60;99.90
74822;DHT22;63353;48.702;8.884;2022-10-20T08:30:54;13.80;99.90
74822;DHT22;63353;48.702;8.884;2022-10-20T08:33:20;13.90;99.90
74822;DHT22;63353;48.702;8.884;2022-10-20T08:35:45;13.80;99.90
74822;DHT22;63353;48.702;8.884;2022-10-20T08:38:11;13.90;99.90
74822;DHT22;63353;48.702;8.884;2022-10-20T08:40:40;14.10;99.90
74822;DHT22;63353;48.702;8.884;2022-10-20T08:43:09;14.30;99.90
74822;DHT22;63353;48.702;8.884;2022-10-20T08:45:35;14.50;99.90
74822;DHT22;63353;48.702;8.884;2022-10-20T08:48:01;14.70;99.90
74822;DHT22;63353;48.702;8.884;2022-10-20T08:50:27;14.90;99.90
74822;DHT22;63353;48.702;8.884;2022-10-20T08:52:57;15.00;99.90
74822;DHT22;63353;48.702;8.884;2022-10-20T08:55:32;15.10;99.90
74822;DHT22;63353;48.702;8.884;2022-10-20T08:58:02;15.30;99.90
74822;DHT22;63353;48.702;8.884;2022-10-20T09:00:28;15.50;99.90
74822;DHT22;63353;48.702;8.884;2022-10-20T09:02:56;15.60;99.90
74822;DHT22;63353;48.702;8.884;2022-10-20T09:05:26;15.40;99.90
74822;DHT22;63353;48.702;8.884;2022-10-20T09:07:52;15.30;99.90
74822;DHT22;63353;48.702;8.884;2022-10-20T09:10:29;15.20;99.90
74822;DHT22;63353;48.702;8.884;2022-10-20T09:12:56;15.40;99.90
74822;DHT22;63353;48.702;8.884;2022-10-20T09:15:22;15.40;99.90
74822;DHT22;63353;48.702;8.884;2022-10-20T09:17:55;15.40;99.90
74822;DHT22;63353;48.702;8.884;2022-10-20T09:22:57;15.30;99.90
74822;DHT22;63353;48.702;8.884;2022-10-20T09:25:24;15.20;99.90
74822;DHT22;63353;48.702;8.884;2022-10-20T09:27:52;15.10;99.90
74822;DHT22;63353;48.702;8.884;2022-10-20T09:32:53;14.90;99.90
74822;DHT22;63353;48.702;8.884;2022-10-20T09:35:23;14.80;99.90
74822;DHT22;63353;48.702;8.884;2022-10-20T09:40:34;14.90;99.90
74822;DHT22;63353;48.702;8.884;2022-10-20T09:43:04;14.90;99.90
74822;DHT22;63353;48.702;8.884;2022-10-20T09:45:32;14.80;99.90
74822;DHT22;63353;48.702;8.884;2022-10-20T09:48:21;14.90;99.90
74822;DHT22;63353;48.702;8.884;2022-10-20T09:50:51;15.10;99.90
74822;DHT22;63353;48.702;8.884;2022-10-20T09:53:22;15.20;99.90
74822;DHT22;63353;48.702;8.884;2022-10-20T09:55:50;15.40;99.90
74822;DHT22;63353;48.702;8.884;2022-10-20T10:00:45;16.00;99.90
74822;DHT22;63353;48.702;8.884;2022-10-20T10:03:20;16.20;99.90
74822;DHT22;63353;48.702;8.884;2022-10-20T10:05:57;16.30;99.90
74822;DHT22;63353;48.702;8.884;2022-10-20T10:08:26;16.50;99.90
74822;DHT22;63353;48.702;8.884;2022-10-20T10:11:02;16.50;99.90
74822;DHT22;63353;48.702;8.884;2022-10-20T10:13:30;16.40;99.90
74822;DHT22;63353;48.702;8.884;2022-10-20T10:16:09;16.20;99.90
74822;DHT22;63353;48.702;8.884;2022-10-20T10:18:36;16.40;99.90
74822;DHT22;63353;48.702;8.884;2022-10-20T10:21:05;16.60;99.90
74822;DHT22;63353;48.702;8.884;2022-10-20T10:24:22;16.80;99.90
74822;DHT22;63353;48.702;8.884;2022-10-20T10:26:45;16.80;99.90
74822;DHT22;63353;48.702;8.884;2022-10-20T10:29:18;16.70;99.90
74822;DHT22;63353;48.702;8.884;2022-10-20T10:32:02;16.70;99.90
74822;DHT22;63353;48.702;8.884;2022-10-20T10:34:35;16.60;99.90
74822;DHT22;63353;48.702;8.884;2022-10-20T10:37:01;16.50;99.90
74822;DHT22;63353;48.702;8.884;2022-10-20T10:39:28;16.50;99.90
74822;DHT22;63353;48.702;8.884;2022-10-20T10:42:20;16.50;99.90
74822;DHT22;63353;48.702;8.884;2022-10-20T11:07:09;16.60;99.90
74822;DHT22;63353;48.702;8.884;2022-10-20T11:12:40;16.70;99.90
74822;DHT22;63353;48.702;8.884;2022-10-20T11:15:25;16.80;99.90
74822;DHT22;63353;48.702;8.884;2022-10-20T11:20:39;16.80;99.90
74822;DHT22;63353;48.702;8.884;2022-10-20T11:28:52;16.50;99.90
74822;DHT22;63353;48.702;8.884;2022-10-20T11:33:54;16.60;99.90
74822;DHT22;63353;48.702;8.884;2022-10-20T11:36:23;16.60;99.90
74822;DHT22;63353;48.702;8.884;2022-10-20T11:38:54;16.70;99.90
74822;DHT22;63353;48.702;8.884;2022-10-20T11:41:42;16.80;99.90
74822;DHT22;63353;48.702;8.884;2022-10-20T11:44:16;16.90;99.90
74822;DHT22;63353;48.702;8.884;2022-10-20T11:49:27;16.80;99.90
74822;DHT22;63353;48.702;8.884;2022-10-20T12:00:55;16.50;99.90
74822;DHT22;63353;48.702;8.884;2022-10-20T12:19:22;16.70;99.90
74822;DHT22;63353;48.702;8.884;2022-10-20T12:22:02;16.60;99.90
74822;DHT22;63353;48.702;8.884;2022-10-20T12:24:37;16.50;99.90
74822;DHT22;63353;48.702;8.884;2022-10-20T12:34:56;16.40;99.90
74822;DHT22;63353;48.702;8.884;2022-10-20T12:39:48;16.10;99.90
74822;DHT22;63353;48.702;8.884;2022-10-20T12:42:26;16.10;99.90
74822;DHT22;63353;48.702;8.884;2022-10-20T12:44:53;16.20;99.90
74822;DHT22;63353;48.702;8.884;2022-10-20T12:47:26;16.10;99.90
74822;DHT22;63353;48.702;8.884;2022-10-20T12:50:07;16.20;99.90
74822;DHT22;63353;48.702;8.884;2022-10-20T12:52:40;16.10;99.90
74822;DHT22;63353;48.702;8.884;2022-10-20T12:55:30;16.20;99.90
74822;DHT22;63353;48.702;8.884;2022-10-20T13:05:57;16.70;99.90
74822;DHT22;63353;48.702;8.884;2022-10-20T13:08:28;16.80;99.90
74822;DHT22;63353;48.702;8.884;2022-10-20T13:10:55;16.90;99.90
74822;DHT22;63353;48.702;8.884;2022-10-20T13:15:52;17.10;99.90
74822;DHT22;63353;48.702;8.884;2022-10-20T13:18:26;17.40;99.90
74822;DHT22;63353;48.702;8.884;2022-10-20T13:21:25;17.40;99.90
74822;DHT22;63353;48.702;8.884;2022-10-20T13:26:36;17.90;99.90
74822;DHT22;63353;48.702;8.884;2022-10-20T13:29:32;17.90;99.90
74822;DHT22;63353;48.702;8.884;2022-10-20T13:34:44;17.70;99.90
74822;DHT22;63353;48.702;8.884;2022-10-20T13:37:13;17.70;99.90
74822;DHT22;63353;48.702;8.884;2022-10-20T13:50:32;17.10;99.90
74822;DHT22;63353;48.702;8.884;2022-10-20T13:53:03;17.10;99.90
74822;DHT22;63353;48.702;8.884;2022-10-20T13:55:50;16.90;99.90
74822;DHT22;63353;48.702;8.884;2022-10-20T13:58:20;16.60;99.90
74822;DHT22;63353;48.702;8.884;2022-10-20T14:03:43;16.40;99.90
74822;DHT22;63353;48.702;8.884;2022-10-20T14:06:34;16.30;99.90
74822;DHT22;63353;48.702;8.884;2022-10-20T14:09:23;16.30;99.90
74822;DHT22;63353;48.702;8.884;2022-10-20T14:11:53;16.20;99.90
74822;DHT22;63353;48.702;8.884;2022-10-20T14:14:23;16.20;99.90
74822;DHT22;63353;48.702;8.884;2022-10-20T14:17:00;16.20;99.90
74822;DHT22;63353;48.702;8.884;2022-10-20T14:19:27;16.10;99.90
74822;DHT22;63353;48.702;8.884;2022-10-20T14:21:57;16.10;99.90
74822;DHT22;63353;48.702;8.884;2022-10-20T14:24:36;16.10;99.90
74822;DHT22;63353;48.702;8.884;2022-10-20T14:27:03;16.00;99.90
74822;DHT22;63353;48.702;8.884;2022-10-20T14:29:36;16.00;99.90
74822;DHT22;63353;48.702;8.884;2022-10-20T14:32:04;15.90;99.90
74822;DHT22;63353;48.702;8.884;2022-10-20T14:34:33;15.90;99.90
74822;DHT22;63353;48.702;8.884;2022-10-20T14:37:00;15.90;99.90
74822;DHT22;63353;48.702;8.884;2022-10-20T14:39:35;15.80;99.90
74822;DHT22;63353;48.702;8.884;2022-10-20T14:42:05;15.80;99.90
74822;DHT22;63353;48.702;8.884;2022-10-20T14:44:42;15.80;99.90
74822;DHT22;63353;48.702;8.884;2022-10-20T14:47:11;15.80;99.90
74822;DHT22;63353;48.702;8.884;2022-10-20T14:49:39;15.80;99.90
74822;DHT22;63353;48.702;8.884;2022-10-20T14:54:42;15.70;99.90
74822;DHT22;63353;48.702;8.884;2022-10-20T15:02:37;15.70;99.90
74822;DHT22;63353;48.702;8.884;2022-10-20T15:08:27;15.50;99.90
74822;DHT22;63353;48.702;8.884;2022-10-20T15:10:56;15.60;99.90
74822;DHT22;63353;48.702;8.884;2022-10-20T15:13:31;15.60;99.90
74822;DHT22;63353;48.702;8.884;2022-10-20T15:16:00;15.60;99.90
74822;DHT22;63353;48.702;8.884;2022-10-20T15:18:27;15.60;99.90
74822;DHT22;63353;48.702;8.884;2022-10-20T15:20:54;15.60;99.90
74822;DHT22;63353;48.702;8.884;2022-10-20T15:23:23;15.70;99.90
74822;DHT22;63353;48.702;8.884;2022-10-20T15:28:22;15.60;99.90
74822;DHT22;63353;48.702;8.884;2022-10-20T15:30:49;15.50;99.90
74822;DHT22;63353;48.702;8.884;2022-10-20T15:33:15;15.50;99.90
74822;DHT22;63353;48.702;8.884;2022-10-20T15:35:40;15.40;99.90
74822;DHT22;63353;48.702;8.884;2022-10-20T15:38:10;15.30;99.90
74822;DHT22;63353;48.702;8.884;2022-10-20T15:40:36;15.30;99.90
74822;DHT22;63353;48.702;8.884;2022-10-20T15:43:02;15.20;99.90
74822;DHT22;63353;48.702;8.884;2022-10-20T15:45:33;15.20;99.90
74822;DHT22;63353;48.702;8.884;2022-10-20T15:48:02;15.10;99.90
74822;DHT22;63353;48.702;8.884;2022-10-20T15:50:27;15.10;99.90
74822;DHT22;63353;48.702;8.884;2022-10-20T15:52:53;15.10;99.90
74822;DHT22;63353;48.702;8.884;2022-10-20T15:55:21;15.00;99.90
74822;DHT22;63353;48.702;8.884;2022-10-20T15:57:50;15.00;99.90
74822;DHT22;63353;48.702;8.884;2022-10-20T16:00:18;14.90;99.90
74822;DHT22;63353;48.702;8.884;2022-10-20T16:02:44;14.90;99.90
74822;DHT22;63353;48.702;8.884;2022-10-20T16:05:10;14.80;99.90
74822;DHT22;63353;48.702;8.884;2022-10-20T16:07:36;14.80;99.90
74822;DHT22;63353;48.702;8.884;2022-10-20T16:10:02;14.80;99.90
74822;DHT22;63353;48.702;8.884;2022-10-20T16:12:28;14.70;99.90
74822;DHT22;63353;48.702;8.884;2022-10-20T16:14:53;14.70;99.90
74822;DHT22;63353;48.702;8.884;2022-10-20T16:17:19;14.60;99.90
74822;DHT22;63353;48.702;8.884;2022-10-20T16:19:45;14.60;99.90
74822;DHT22;63353;48.702;8.884;2022-10-20T16:22:10;14.60;99.90
74822;DHT22;63353;48.702;8.884;2022-10-20T16:24:36;14.60;99.90
74822;DHT22;63353;48.702;8.884;2022-10-20T16:27:01;14.50;99.90
74822;DHT22;63353;48.702;8.884;2022-10-20T16:29:30;14.50;99.90
74822;DHT22;63353;48.702;8.884;2022-10-20T16:31:55;14.50;99.90
74822;DHT22;63353;48.702;8.884;2022-10-20T16:34:23;14.50;99.90
74822;DHT22;63353;48.702;8.884;2022-10-20T16:36:49;14.50;99.90
74822;DHT22;63353;48.702;8.884;2022-10-20T16:39:15;14.40;99.90
74822;DHT22;63353;48.702;8.884;2022-10-20T16:41:42;14.40;99.90
74822;DHT22;63353;48.702;8.884;2022-10-20T16:44:08;14.70;99.90
74822;DHT22;63353;48.702;8.884;2022-10-20T16:46:34;14.70;99.90
74822;DHT22;63353;48.702;8.884;2022-10-20T16:48:59;14.70;99.90
74822;DHT22;63353;48.702;8.884;2022-10-20T16:51:25;14.60;99.90
74822;DHT22;63353;48.702;8.884;2022-10-20T16:53:53;14.50;99.90
74822;DHT22;63353;48.702;8.884;2022-10-20T16:56:18;14.50;99.90
74822;DHT22;63353;48.702;8.884;2022-10-20T16:58:44;14.50;99.90
74822;DHT22;63353;48.702;8.884;2022-10-20T17:01:11;14.40;99.90
74822;DHT22;63353;48.702;8.884;2022-10-20T17:03:45;14.40;99.90
74822;DHT22;63353;48.702;8.884;2022-10-20T17:06:11;14.40;99.90
74822;DHT22;63353;48.702;8.884;2022-10-20T17:08:37;14.30;99.90
74822;DHT22;63353;48.702;8.884;2022-10-20T17:11:06;14.30;99.90
74822;DHT22;63353;48.702;8.884;2022-10-20T17:13:32;14.30;99.90
74822;DHT22;63353;48.702;8.884;2022-10-20T17:16:05;14.30;99.90
74822;DHT22;63353;48.702;8.884;2022-10-20T17:18:32;14.20;99.90
74822;DHT22;63353;48.702;8.884;2022-10-20T17:20:57;14.20;99.90
74822;DHT22;63353;48.702;8.884;2022-10-20T17:23:24;14.10;99.90
74822;DHT22;63353;48.702;8.884;2022-10-20T17:25:51;14.10;99.90
74822;DHT22;63353;48.702;8.884;2022-10-20T17:28:18;14.10;99.90
74822;DHT22;63353;48.702;8.884;2022-10-20T17:30:45;14.10;99.90
74822;DHT22;63353;48.702;8.884;2022-10-20T17:33:11;14.10;99.90
74822;DHT22;63353;48.702;8.884;2022-10-20T17:35:37;14.10;99.90
74822;DHT22;63353;48.702;8.884;2022-10-20T17:38:04;14.00;99.90
74822;DHT22;63353;48.702;8.884;2022-10-20T17:40:34;14.00;99.90
74822;DHT22;63353;48.702;8.884;2022-10-20T17:43:00;13.90;99.90
74822;DHT22;63353;48.702;8.884;2022-10-20T17:45:25;14.00;99.90
74822;DHT22;63353;48.702;8.884;2022-10-20T17:47:51;14.00;99.90
74822;DHT22;63353;48.702;8.884;2022-10-20T17:50:17;14.10;99.90
74822;DHT22;63353;48.702;8.884;2022-10-20T17:52:43;14.10;99.90
74822;DHT22;63353;48.702;8.884;2022-10-20T17:55:09;14.00;99.90
74822;DHT22;63353;48.702;8.884;2022-10-20T17:57:35;14.00;99.90
74822;DHT22;63353;48.702;8.884;2022-10-20T18:00:00;14.00;99.90
74822;DHT22;63353;48.702;8.884;2022-10-20T18:02:26;14.00;99.90
74822;DHT22;63353;48.702;8.884;2022-10-20T18:04:52;14.00;99.90
74822;DHT22;63353;48.702;8.884;2022-10-20T18:07:17;14.00;99.90
74822;DHT22;63353;48.702;8.884;2022-10-20T18:09:43;14.00;99.90
74822;DHT22;63353;48.702;8.884;2022-10-20T18:12:09;14.00;99.90
74822;DHT22;63353;48.702;8.884;2022-10-20T18:14:35;14.00;99.90
74822;DHT22;63353;48.702;8.884;2022-10-20T18:17:00;13.90;99.90
74822;DHT22;63353;48.702;8.884;2022-10-20T18:19:26;13.90;99.90